North Park, Indiana
Current Conditions -  °F | °C
As of 10:28 PM on Wednesday 26 Nov 2014 (Local Time) from KEVV Reporting Station
Light Snow Light Snow  
Wind Chill: -1°   Ceiling: 2100
Heat Index:   Visibility: 2.5mi
Dew Point: -1°   Wind: 5mph
Humidity: 89%   Direction: 340°NNW
Pressure: 30.08"   Gusts: NA
Location:  38.0194°N, 87.5754°W
Report Text: KEVV 270428Z 34004KT 2 1/2SM -SN BR BKN021 OVC035 01/M01 A3008 RMK AO2 P0000 T00111006
Loading
Personal Weather Stations






























Interactive Weather Map New forecast layout! Learn more

10-Day Weather Forecast

Advertisements
Track Severe Weather on mobile